Terminal Aerodrome Forecast
Issued by NWS St Louis, MO

Home | Current Version | Previous Version | Text Only | Print | Product List | Glossary On
Versions: 1 2 3 4 5 6 7 8 9 10 11 12 13 14 15 16 17 18 19 20 21 22 23 24
000
FTUS43 KLSX 060905 AAA
TAFSTL
TAF AMD
KSTL 060905Z 0609/0712 VRB03KT P6SM SCT015 BKN100
      TEMPO 0610/0611 OVC015
     FM061100 32005KT 4SM BR OVC010
      TEMPO 0611/0615 OVC008
     FM061600 31010G18KT P6SM OVC015
     FM062000 30011G19KT P6SM SCT070
     FM070000 30008KT P6SM SCT200
     FM070600 30004KT P6SM BKN150=

USA.gov is the U.S. government's official web portal to all federal, state and local government web resources and services.